sensor_id;sensor_type;location;lat;lon;timestamp;temperature;humidity
19258;DHT22;9763;48.780;9.212;2023-09-19T00:02:21;21.30;68.20
19258;DHT22;9763;48.780;9.212;2023-09-19T00:05:47;21.30;68.20
19258;DHT22;9763;48.780;9.212;2023-09-19T00:09:12;21.30;68.10
19258;DHT22;9763;48.780;9.212;2023-09-19T00:12:37;21.30;68.10
19258;DHT22;9763;48.780;9.212;2023-09-19T00:16:08;21.30;68.10
19258;DHT22;9763;48.780;9.212;2023-09-19T00:19:35;21.20;68.10
19258;DHT22;9763;48.780;9.212;2023-09-19T00:23:01;21.20;68.10
19258;DHT22;9763;48.780;9.212;2023-09-19T00:26:33;21.20;68.00
19258;DHT22;9763;48.780;9.212;2023-09-19T00:29:58;21.20;68.00
19258;DHT22;9763;48.780;9.212;2023-09-19T00:33:24;21.20;68.10
19258;DHT22;9763;48.780;9.212;2023-09-19T00:36:50;21.20;68.00
19258;DHT22;9763;48.780;9.212;2023-09-19T00:40:17;21.20;68.10
19258;DHT22;9763;48.780;9.212;2023-09-19T00:43:42;21.10;67.90
19258;DHT22;9763;48.780;9.212;2023-09-19T00:47:06;21.10;68.00
19258;DHT22;9763;48.780;9.212;2023-09-19T00:50:32;21.10;68.00
19258;DHT22;9763;48.780;9.212;2023-09-19T00:53:57;21.10;68.10
19258;DHT22;9763;48.780;9.212;2023-09-19T00:57:25;21.10;68.10
19258;DHT22;9763;48.780;9.212;2023-09-19T01:00:49;21.10;68.00
19258;DHT22;9763;48.780;9.212;2023-09-19T01:04:18;21.10;68.10
19258;DHT22;9763;48.780;9.212;2023-09-19T01:07:43;21.10;68.00
19258;DHT22;9763;48.780;9.212;2023-09-19T01:11:13;22.10;69.00
19258;DHT22;9763;48.780;9.212;2023-09-19T01:14:55;21.10;67.90
19258;DHT22;9763;48.780;9.212;2023-09-19T01:18:35;21.30;68.00
19258;DHT22;9763;48.780;9.212;2023-09-19T01:22:13;21.10;67.80
19258;DHT22;9763;48.780;9.212;2023-09-19T01:26:06;21.10;67.90
19258;DHT22;9763;48.780;9.212;2023-09-19T01:29:38;21.10;67.60
19258;DHT22;9763;48.780;9.212;2023-09-19T01:33:08;21.20;67.80
19258;DHT22;9763;48.780;9.212;2023-09-19T01:36:34;21.10;67.70
19258;DHT22;9763;48.780;9.212;2023-09-19T01:40:03;21.10;67.70
19258;DHT22;9763;48.780;9.212;2023-09-19T01:43:42;21.00;67.60
19258;DHT22;9763;48.780;9.212;2023-09-19T01:47:13;21.00;67.70
19258;DHT22;9763;48.780;9.212;2023-09-19T01:50:52;21.00;67.70
19258;DHT22;9763;48.780;9.212;2023-09-19T01:54:26;21.00;67.70
19258;DHT22;9763;48.780;9.212;2023-09-19T01:58:01;21.10;67.70
19258;DHT22;9763;48.780;9.212;2023-09-19T02:01:31;21.00;67.60
19258;DHT22;9763;48.780;9.212;2023-09-19T02:05:05;21.00;67.50
19258;DHT22;9763;48.780;9.212;2023-09-19T02:08:37;21.00;67.50
19258;DHT22;9763;48.780;9.212;2023-09-19T02:12:03;21.00;67.40
19258;DHT22;9763;48.780;9.212;2023-09-19T02:15:28;21.00;67.40
19258;DHT22;9763;48.780;9.212;2023-09-19T02:18:58;20.90;67.20
19258;DHT22;9763;48.780;9.212;2023-09-19T02:22:23;20.90;67.20
19258;DHT22;9763;48.780;9.212;2023-09-19T02:25:53;20.90;67.10
19258;DHT22;9763;48.780;9.212;2023-09-19T02:29:18;20.90;67.20
19258;DHT22;9763;48.780;9.212;2023-09-19T02:32:42;20.90;67.20
19258;DHT22;9763;48.780;9.212;2023-09-19T02:36:06;20.90;67.10
19258;DHT22;9763;48.780;9.212;2023-09-19T02:39:32;20.90;67.10
19258;DHT22;9763;48.780;9.212;2023-09-19T02:42:58;20.80;66.90
19258;DHT22;9763;48.780;9.212;2023-09-19T02:46:23;20.80;66.80
19258;DHT22;9763;48.780;9.212;2023-09-19T02:49:47;20.80;66.80
19258;DHT22;9763;48.780;9.212;2023-09-19T02:53:13;20.80;66.70
19258;DHT22;9763;48.780;9.212;2023-09-19T02:56:38;20.70;66.60
19258;DHT22;9763;48.780;9.212;2023-09-19T03:00:05;20.70;66.50
19258;DHT22;9763;48.780;9.212;2023-09-19T03:03:32;20.70;66.70
19258;DHT22;9763;48.780;9.212;2023-09-19T03:06:57;20.60;66.70
19258;DHT22;9763;48.780;9.212;2023-09-19T03:10:23;20.60;67.70
19258;DHT22;9763;48.780;9.212;2023-09-19T03:13:51;20.60;67.10
19258;DHT22;9763;48.780;9.212;2023-09-19T03:17:18;20.60;67.20
19258;DHT22;9763;48.780;9.212;2023-09-19T03:20:43;20.60;67.20
19258;DHT22;9763;48.780;9.212;2023-09-19T03:24:07;20.70;67.30
19258;DHT22;9763;48.780;9.212;2023-09-19T03:27:33;20.70;67.30
19258;DHT22;9763;48.780;9.212;2023-09-19T03:31:05;20.70;67.30
19258;DHT22;9763;48.780;9.212;2023-09-19T03:34:33;20.70;68.10
19258;DHT22;9763;48.780;9.212;2023-09-19T03:38:05;20.80;67.30
19258;DHT22;9763;48.780;9.212;2023-09-19T03:41:32;20.80;67.30
19258;DHT22;9763;48.780;9.212;2023-09-19T03:45:00;20.80;67.20
19258;DHT22;9763;48.780;9.212;2023-09-19T03:48:27;20.80;67.20
19258;DHT22;9763;48.780;9.212;2023-09-19T03:51:53;21.00;67.40
19258;DHT22;9763;48.780;9.212;2023-09-19T03:55:20;20.80;67.10
19258;DHT22;9763;48.780;9.212;2023-09-19T03:58:44;20.80;67.10
19258;DHT22;9763;48.780;9.212;2023-09-19T04:02:07;20.90;67.10
19258;DHT22;9763;48.780;9.212;2023-09-19T04:05:35;20.90;67.00
19258;DHT22;9763;48.780;9.212;2023-09-19T04:09:01;20.90;67.00
19258;DHT22;9763;48.780;9.212;2023-09-19T04:12:25;20.90;66.80
19258;DHT22;9763;48.780;9.212;2023-09-19T04:15:49;20.90;66.70
19258;DHT22;9763;48.780;9.212;2023-09-19T04:19:14;20.90;66.50
19258;DHT22;9763;48.780;9.212;2023-09-19T04:22:39;20.90;66.40
19258;DHT22;9763;48.780;9.212;2023-09-19T04:26:05;20.90;66.40
19258;DHT22;9763;48.780;9.212;2023-09-19T04:29:29;20.80;66.40
19258;DHT22;9763;48.780;9.212;2023-09-19T04:32:54;20.90;66.60
19258;DHT22;9763;48.780;9.212;2023-09-19T04:36:18;20.90;66.70
19258;DHT22;9763;48.780;9.212;2023-09-19T04:39:57;20.90;66.70
19258;DHT22;9763;48.780;9.212;2023-09-19T04:43:22;21.00;66.90
19258;DHT22;9763;48.780;9.212;2023-09-19T04:46:46;20.90;66.90
19258;DHT22;9763;48.780;9.212;2023-09-19T04:50:11;20.90;66.90
19258;DHT22;9763;48.780;9.212;2023-09-19T04:53:36;20.90;66.90
19258;DHT22;9763;48.780;9.212;2023-09-19T04:57:02;20.90;67.00
19258;DHT22;9763;48.780;9.212;2023-09-19T05:00:30;20.90;67.00
19258;DHT22;9763;48.780;9.212;2023-09-19T05:04:00;20.90;67.10
19258;DHT22;9763;48.780;9.212;2023-09-19T05:07:25;20.80;67.10
19258;DHT22;9763;48.780;9.212;2023-09-19T05:10:49;20.80;68.20
19258;DHT22;9763;48.780;9.212;2023-09-19T05:14:13;20.70;69.50
19258;DHT22;9763;48.780;9.212;2023-09-19T05:17:38;20.60;70.30
19258;DHT22;9763;48.780;9.212;2023-09-19T05:21:05;20.50;71.10
19258;DHT22;9763;48.780;9.212;2023-09-19T05:24:33;20.40;71.80
19258;DHT22;9763;48.780;9.212;2023-09-19T05:27:58;20.30;73.20
19258;DHT22;9763;48.780;9.212;2023-09-19T05:31:27;20.30;73.00
19258;DHT22;9763;48.780;9.212;2023-09-19T05:34:54;20.20;73.40
19258;DHT22;9763;48.780;9.212;2023-09-19T05:38:20;20.20;73.90
19258;DHT22;9763;48.780;9.212;2023-09-19T05:41:45;20.10;74.20
19258;DHT22;9763;48.780;9.212;2023-09-19T05:45:10;20.10;74.80
19258;DHT22;9763;48.780;9.212;2023-09-19T05:48:39;20.40;75.40
19258;DHT22;9763;48.780;9.212;2023-09-19T05:52:07;20.10;75.20
19258;DHT22;9763;48.780;9.212;2023-09-19T05:55:31;20.10;75.00
19258;DHT22;9763;48.780;9.212;2023-09-19T05:58:56;20.00;74.60
19258;DHT22;9763;48.780;9.212;2023-09-19T06:02:20;19.90;74.50
19258;DHT22;9763;48.780;9.212;2023-09-19T06:05:45;19.70;74.50
19258;DHT22;9763;48.780;9.212;2023-09-19T06:09:14;19.60;74.90
19258;DHT22;9763;48.780;9.212;2023-09-19T06:12:39;19.50;75.60
19258;DHT22;9763;48.780;9.212;2023-09-19T06:16:04;19.40;76.10
19258;DHT22;9763;48.780;9.212;2023-09-19T06:19:32;19.30;76.40
19258;DHT22;9763;48.780;9.212;2023-09-19T06:23:03;19.30;77.10
19258;DHT22;9763;48.780;9.212;2023-09-19T06:26:28;19.20;77.50
19258;DHT22;9763;48.780;9.212;2023-09-19T06:29:53;19.20;77.50
19258;DHT22;9763;48.780;9.212;2023-09-19T06:33:17;19.20;77.70
19258;DHT22;9763;48.780;9.212;2023-09-19T06:36:51;19.30;78.10
19258;DHT22;9763;48.780;9.212;2023-09-19T06:40:18;19.20;78.20
19258;DHT22;9763;48.780;9.212;2023-09-19T06:43:44;20.20;79.70
19258;DHT22;9763;48.780;9.212;2023-09-19T06:47:08;19.20;79.00
19258;DHT22;9763;48.780;9.212;2023-09-19T06:50:33;19.20;79.60
19258;DHT22;9763;48.780;9.212;2023-09-19T06:53:57;19.50;80.50
19258;DHT22;9763;48.780;9.212;2023-09-19T06:57:30;19.40;80.70
19258;DHT22;9763;48.780;9.212;2023-09-19T07:01:02;19.50;81.20
19258;DHT22;9763;48.780;9.212;2023-09-19T07:04:27;19.70;81.80
19258;DHT22;9763;48.780;9.212;2023-09-19T07:07:51;19.90;82.70
19258;DHT22;9763;48.780;9.212;2023-09-19T07:11:27;20.10;84.30
19258;DHT22;9763;48.780;9.212;2023-09-19T07:14:53;20.40;85.00
19258;DHT22;9763;48.780;9.212;2023-09-19T07:18:19;20.80;86.60
19258;DHT22;9763;48.780;9.212;2023-09-19T07:21:45;21.10;86.70
19258;DHT22;9763;48.780;9.212;2023-09-19T07:25:13;21.50;86.10
19258;DHT22;9763;48.780;9.212;2023-09-19T07:28:38;21.80;84.60
19258;DHT22;9763;48.780;9.212;2023-09-19T07:32:02;22.00;83.40
19258;DHT22;9763;48.780;9.212;2023-09-19T07:35:31;22.20;82.40
19258;DHT22;9763;48.780;9.212;2023-09-19T07:38:58;22.20;81.90
19258;DHT22;9763;48.780;9.212;2023-09-19T07:42:43;22.20;83.30
19258;DHT22;9763;48.780;9.212;2023-09-19T07:46:09;22.40;83.80
19258;DHT22;9763;48.780;9.212;2023-09-19T07:49:34;22.60;84.00
19258;DHT22;9763;48.780;9.212;2023-09-19T07:52:59;22.80;84.20
19258;DHT22;9763;48.780;9.212;2023-09-19T07:56:24;23.00;85.90
19258;DHT22;9763;48.780;9.212;2023-09-19T07:59:50;23.40;88.20
19258;DHT22;9763;48.780;9.212;2023-09-19T08:03:14;23.80;88.50
19258;DHT22;9763;48.780;9.212;2023-09-19T08:06:40;24.20;86.70
19258;DHT22;9763;48.780;9.212;2023-09-19T08:10:07;24.50;85.90
19258;DHT22;9763;48.780;9.212;2023-09-19T08:13:35;24.80;85.50
19258;DHT22;9763;48.780;9.212;2023-09-19T08:17:00;25.10;85.40
19258;DHT22;9763;48.780;9.212;2023-09-19T08:20:25;25.50;84.60
19258;DHT22;9763;48.780;9.212;2023-09-19T08:23:49;25.80;84.50
19258;DHT22;9763;48.780;9.212;2023-09-19T08:27:15;26.10;83.50
19258;DHT22;9763;48.780;9.212;2023-09-19T08:30:41;26.50;82.80
19258;DHT22;9763;48.780;9.212;2023-09-19T08:34:06;26.80;82.10
19258;DHT22;9763;48.780;9.212;2023-09-19T08:37:30;27.00;79.80
19258;DHT22;9763;48.780;9.212;2023-09-19T08:40:57;27.20;78.00
19258;DHT22;9763;48.780;9.212;2023-09-19T08:44:25;27.40;77.80
19258;DHT22;9763;48.780;9.212;2023-09-19T08:47:56;27.50;76.50
19258;DHT22;9763;48.780;9.212;2023-09-19T08:51:38;27.70;76.70
19258;DHT22;9763;48.780;9.212;2023-09-19T08:55:07;27.80;75.00
19258;DHT22;9763;48.780;9.212;2023-09-19T08:58:44;27.90;74.40
19258;DHT22;9763;48.780;9.212;2023-09-19T09:02:14;27.90;74.10
19258;DHT22;9763;48.780;9.212;2023-09-19T09:05:41;27.90;72.50
19258;DHT22;9763;48.780;9.212;2023-09-19T09:09:08;27.90;73.10
19258;DHT22;9763;48.780;9.212;2023-09-19T09:12:35;27.90;74.20
19258;DHT22;9763;48.780;9.212;2023-09-19T09:16:02;28.00;74.90
19258;DHT22;9763;48.780;9.212;2023-09-19T09:19:27;28.30;75.70
19258;DHT22;9763;48.780;9.212;2023-09-19T09:22:51;28.60;72.80
19258;DHT22;9763;48.780;9.212;2023-09-19T09:26:16;28.80;71.30
19258;DHT22;9763;48.780;9.212;2023-09-19T09:29:42;29.00;70.40
19258;DHT22;9763;48.780;9.212;2023-09-19T09:33:10;29.10;68.50
19258;DHT22;9763;48.780;9.212;2023-09-19T09:36:37;29.20;66.40
19258;DHT22;9763;48.780;9.212;2023-09-19T09:40:04;29.20;63.60
19258;DHT22;9763;48.780;9.212;2023-09-19T09:43:42;29.20;63.30
19258;DHT22;9763;48.780;9.212;2023-09-19T09:47:09;29.20;63.30
19258;DHT22;9763;48.780;9.212;2023-09-19T09:50:51;29.30;62.40
19258;DHT22;9763;48.780;9.212;2023-09-19T09:54:20;29.40;63.40
19258;DHT22;9763;48.780;9.212;2023-09-19T09:57:45;29.60;62.50
19258;DHT22;9763;48.780;9.212;2023-09-19T10:01:08;29.70;64.30
19258;DHT22;9763;48.780;9.212;2023-09-19T10:04:37;30.00;64.20
19258;DHT22;9763;48.780;9.212;2023-09-19T10:08:14;30.30;63.50
19258;DHT22;9763;48.780;9.212;2023-09-19T10:11:43;30.60;62.10
19258;DHT22;9763;48.780;9.212;2023-09-19T10:15:10;30.90;60.60
19258;DHT22;9763;48.780;9.212;2023-09-19T10:18:38;31.10;57.40
19258;DHT22;9763;48.780;9.212;2023-09-19T10:22:06;31.20;56.30
19258;DHT22;9763;48.780;9.212;2023-09-19T10:25:32;31.10;55.00
19258;DHT22;9763;48.780;9.212;2023-09-19T10:29:00;30.90;54.10
19258;DHT22;9763;48.780;9.212;2023-09-19T10:32:28;30.50;52.90
19258;DHT22;9763;48.780;9.212;2023-09-19T10:35:59;30.10;52.70
19258;DHT22;9763;48.780;9.212;2023-09-19T10:39:24;29.60;52.30
19258;DHT22;9763;48.780;9.212;2023-09-19T10:42:48;29.40;53.00
19258;DHT22;9763;48.780;9.212;2023-09-19T10:46:15;29.20;53.10
19258;DHT22;9763;48.780;9.212;2023-09-19T10:49:43;28.90;51.80
19258;DHT22;9763;48.780;9.212;2023-09-19T10:53:09;28.70;50.70
19258;DHT22;9763;48.780;9.212;2023-09-19T10:56:36;28.60;52.70
19258;DHT22;9763;48.780;9.212;2023-09-19T11:00:05;28.50;51.80
19258;DHT22;9763;48.780;9.212;2023-09-19T11:03:46;28.40;51.40
19258;DHT22;9763;48.780;9.212;2023-09-19T11:07:15;28.40;52.30
19258;DHT22;9763;48.780;9.212;2023-09-19T11:10:46;28.50;53.00
19258;DHT22;9763;48.780;9.212;2023-09-19T11:14:15;28.70;52.80
19258;DHT22;9763;48.780;9.212;2023-09-19T11:17:54;28.70;51.00
19258;DHT22;9763;48.780;9.212;2023-09-19T11:25:42;28.60;50.60
19258;DHT22;9763;48.780;9.212;2023-09-19T11:29:31;28.40;51.00
19258;DHT22;9763;48.780;9.212;2023-09-19T11:33:16;28.50;50.40
19258;DHT22;9763;48.780;9.212;2023-09-19T11:36:43;28.60;50.10
19258;DHT22;9763;48.780;9.212;2023-09-19T11:40:08;28.50;50.40
19258;DHT22;9763;48.780;9.212;2023-09-19T11:43:40;28.40;48.80
19258;DHT22;9763;48.780;9.212;2023-09-19T11:47:04;28.20;48.50
19258;DHT22;9763;48.780;9.212;2023-09-19T11:50:31;28.00;48.70
19258;DHT22;9763;48.780;9.212;2023-09-19T11:53:56;27.80;48.30
19258;DHT22;9763;48.780;9.212;2023-09-19T11:57:22;27.80;49.10
19258;DHT22;9763;48.780;9.212;2023-09-19T12:00:54;27.80;49.70
19258;DHT22;9763;48.780;9.212;2023-09-19T12:04:22;28.00;49.70
19258;DHT22;9763;48.780;9.212;2023-09-19T12:07:58;28.20;49.30
19258;DHT22;9763;48.780;9.212;2023-09-19T12:11:28;28.30;49.00
19258;DHT22;9763;48.780;9.212;2023-09-19T12:14:56;28.40;48.50
19258;DHT22;9763;48.780;9.212;2023-09-19T12:18:29;28.50;49.40
19258;DHT22;9763;48.780;9.212;2023-09-19T12:21:57;28.60;49.10
19258;DHT22;9763;48.780;9.212;2023-09-19T12:25:22;28.80;49.40
19258;DHT22;9763;48.780;9.212;2023-09-19T12:28:47;28.90;48.50
19258;DHT22;9763;48.780;9.212;2023-09-19T12:32:11;29.10;48.90
19258;DHT22;9763;48.780;9.212;2023-09-19T12:35:40;29.10;48.50
19258;DHT22;9763;48.780;9.212;2023-09-19T12:39:05;29.20;48.10
19258;DHT22;9763;48.780;9.212;2023-09-19T12:42:31;29.20;47.80
19258;DHT22;9763;48.780;9.212;2023-09-19T12:45:58;29.10;48.30
19258;DHT22;9763;48.780;9.212;2023-09-19T12:49:22;29.00;47.80
19258;DHT22;9763;48.780;9.212;2023-09-19T12:52:48;28.90;47.60
19258;DHT22;9763;48.780;9.212;2023-09-19T12:56:14;28.90;46.70
19258;DHT22;9763;48.780;9.212;2023-09-19T12:59:39;28.70;46.50
19258;DHT22;9763;48.780;9.212;2023-09-19T13:03:18;28.50;46.80
19258;DHT22;9763;48.780;9.212;2023-09-19T13:06:49;28.40;45.70
19258;DHT22;9763;48.780;9.212;2023-09-19T13:10:15;28.20;46.00
19258;DHT22;9763;48.780;9.212;2023-09-19T13:13:40;28.00;46.40
19258;DHT22;9763;48.780;9.212;2023-09-19T13:17:10;28.00;46.80
19258;DHT22;9763;48.780;9.212;2023-09-19T13:20:39;27.90;46.60
19258;DHT22;9763;48.780;9.212;2023-09-19T13:24:19;27.80;46.80
19258;DHT22;9763;48.780;9.212;2023-09-19T13:27:48;27.80;46.10
19258;DHT22;9763;48.780;9.212;2023-09-19T13:31:15;27.70;46.10
19258;DHT22;9763;48.780;9.212;2023-09-19T13:34:38;27.70;46.10
19258;DHT22;9763;48.780;9.212;2023-09-19T13:38:03;27.60;45.90
19258;DHT22;9763;48.780;9.212;2023-09-19T13:41:29;27.50;45.70
19258;DHT22;9763;48.780;9.212;2023-09-19T13:44:55;27.40;45.60
19258;DHT22;9763;48.780;9.212;2023-09-19T13:48:18;27.30;45.50
19258;DHT22;9763;48.780;9.212;2023-09-19T13:51:45;27.40;45.60
19258;DHT22;9763;48.780;9.212;2023-09-19T13:55:09;27.00;45.50
19258;DHT22;9763;48.780;9.212;2023-09-19T13:58:32;26.90;46.00
19258;DHT22;9763;48.780;9.212;2023-09-19T14:01:59;26.80;45.80
19258;DHT22;9763;48.780;9.212;2023-09-19T14:05:23;26.80;45.70
19258;DHT22;9763;48.780;9.212;2023-09-19T14:08:50;26.80;45.70
19258;DHT22;9763;48.780;9.212;2023-09-19T14:12:15;26.80;45.90
19258;DHT22;9763;48.780;9.212;2023-09-19T14:15:39;26.70;45.90
19258;DHT22;9763;48.780;9.212;2023-09-19T14:19:04;26.70;46.00
19258;DHT22;9763;48.780;9.212;2023-09-19T14:22:27;26.70;45.70
19258;DHT22;9763;48.780;9.212;2023-09-19T14:25:52;26.70;45.70
19258;DHT22;9763;48.780;9.212;2023-09-19T14:29:16;26.60;45.70
19258;DHT22;9763;48.780;9.212;2023-09-19T14:32:42;26.60;45.70
19258;DHT22;9763;48.780;9.212;2023-09-19T14:36:08;26.50;45.30
19258;DHT22;9763;48.780;9.212;2023-09-19T14:39:33;26.40;45.10
19258;DHT22;9763;48.780;9.212;2023-09-19T14:42:57;26.30;45.30
19258;DHT22;9763;48.780;9.212;2023-09-19T14:46:21;26.30;45.30
19258;DHT22;9763;48.780;9.212;2023-09-19T14:49:47;26.20;45.40
19258;DHT22;9763;48.780;9.212;2023-09-19T14:53:12;26.20;45.20
19258;DHT22;9763;48.780;9.212;2023-09-19T14:56:36;26.20;45.30
19258;DHT22;9763;48.780;9.212;2023-09-19T15:00:01;26.20;45.50
19258;DHT22;9763;48.780;9.212;2023-09-19T15:03:28;26.20;45.50
19258;DHT22;9763;48.780;9.212;2023-09-19T15:06:52;26.20;45.60
19258;DHT22;9763;48.780;9.212;2023-09-19T15:10:18;26.20;45.40
19258;DHT22;9763;48.780;9.212;2023-09-19T15:13:44;25.20;44.80
19258;DHT22;9763;48.780;9.212;2023-09-19T15:17:08;26.20;45.40
19258;DHT22;9763;48.780;9.212;2023-09-19T15:20:33;26.10;45.20
19258;DHT22;9763;48.780;9.212;2023-09-19T15:23:58;26.10;45.30
19258;DHT22;9763;48.780;9.212;2023-09-19T15:27:23;26.10;45.30
19258;DHT22;9763;48.780;9.212;2023-09-19T15:30:47;26.00;45.00
19258;DHT22;9763;48.780;9.212;2023-09-19T15:34:11;25.90;45.10
19258;DHT22;9763;48.780;9.212;2023-09-19T15:37:38;25.80;45.90
19258;DHT22;9763;48.780;9.212;2023-09-19T15:41:03;25.80;45.00
19258;DHT22;9763;48.780;9.212;2023-09-19T15:44:30;25.70;45.10
19258;DHT22;9763;48.780;9.212;2023-09-19T15:47:55;25.70;45.40
19258;DHT22;9763;48.780;9.212;2023-09-19T15:51:19;25.60;45.50
19258;DHT22;9763;48.780;9.212;2023-09-19T15:54:44;25.60;45.50
19258;DHT22;9763;48.780;9.212;2023-09-19T15:58:08;25.60;45.80
19258;DHT22;9763;48.780;9.212;2023-09-19T16:01:33;25.60;45.80
19258;DHT22;9763;48.780;9.212;2023-09-19T16:04:57;25.60;45.70
19258;DHT22;9763;48.780;9.212;2023-09-19T16:08:21;25.60;45.90
19258;DHT22;9763;48.780;9.212;2023-09-19T16:11:45;25.60;45.80
19258;DHT22;9763;48.780;9.212;2023-09-19T16:15:11;25.60;45.70
19258;DHT22;9763;48.780;9.212;2023-09-19T16:18:38;25.50;45.80
19258;DHT22;9763;48.780;9.212;2023-09-19T16:22:02;25.50;45.80
19258;DHT22;9763;48.780;9.212;2023-09-19T16:25:26;25.50;45.90
19258;DHT22;9763;48.780;9.212;2023-09-19T16:28:51;25.40;45.90
19258;DHT22;9763;48.780;9.212;2023-09-19T16:32:16;25.40;46.00
19258;DHT22;9763;48.780;9.212;2023-09-19T16:35:41;25.30;46.00
19258;DHT22;9763;48.780;9.212;2023-09-19T16:39:05;25.30;46.10
19258;DHT22;9763;48.780;9.212;2023-09-19T16:42:30;25.30;46.20
19258;DHT22;9763;48.780;9.212;2023-09-19T16:46:01;25.30;46.30
19258;DHT22;9763;48.780;9.212;2023-09-19T16:49:29;25.30;46.40
19258;DHT22;9763;48.780;9.212;2023-09-19T16:52:55;25.30;46.50
19258;DHT22;9763;48.780;9.212;2023-09-19T16:56:19;25.20;46.30
19258;DHT22;9763;48.780;9.212;2023-09-19T16:59:43;25.20;47.00
19258;DHT22;9763;48.780;9.212;2023-09-19T17:03:07;25.10;46.40
19258;DHT22;9763;48.780;9.212;2023-09-19T17:06:33;25.00;46.50
19258;DHT22;9763;48.780;9.212;2023-09-19T17:10:04;25.00;46.60
19258;DHT22;9763;48.780;9.212;2023-09-19T17:13:29;25.00;46.70
19258;DHT22;9763;48.780;9.212;2023-09-19T17:16:55;24.90;46.80
19258;DHT22;9763;48.780;9.212;2023-09-19T17:20:18;24.90;47.50
19258;DHT22;9763;48.780;9.212;2023-09-19T17:23:42;24.80;46.70
19258;DHT22;9763;48.780;9.212;2023-09-19T17:27:08;24.80;46.90
19258;DHT22;9763;48.780;9.212;2023-09-19T17:30:33;24.70;46.80
19258;DHT22;9763;48.780;9.212;2023-09-19T17:34:01;24.70;47.00
19258;DHT22;9763;48.780;9.212;2023-09-19T17:37:25;24.60;47.00
19258;DHT22;9763;48.780;9.212;2023-09-19T17:40:50;24.50;47.20
19258;DHT22;9763;48.780;9.212;2023-09-19T17:44:15;24.30;47.10
19258;DHT22;9763;48.780;9.212;2023-09-19T17:47:42;24.30;47.30
19258;DHT22;9763;48.780;9.212;2023-09-19T17:51:07;24.10;47.50
19258;DHT22;9763;48.780;9.212;2023-09-19T17:54:31;24.00;47.60
19258;DHT22;9763;48.780;9.212;2023-09-19T17:57:56;23.90;47.70
19258;DHT22;9763;48.780;9.212;2023-09-19T18:01:23;23.80;47.80
19258;DHT22;9763;48.780;9.212;2023-09-19T18:04:49;23.70;48.00
19258;DHT22;9763;48.780;9.212;2023-09-19T18:08:13;23.50;48.00
19258;DHT22;9763;48.780;9.212;2023-09-19T18:11:39;23.50;48.20
19258;DHT22;9763;48.780;9.212;2023-09-19T18:15:07;23.40;48.40
19258;DHT22;9763;48.780;9.212;2023-09-19T18:18:33;23.30;48.40
19258;DHT22;9763;48.780;9.212;2023-09-19T18:21:57;23.20;48.70
19258;DHT22;9763;48.780;9.212;2023-09-19T18:25:22;23.10;48.70
19258;DHT22;9763;48.780;9.212;2023-09-19T18:28:46;23.00;48.90
19258;DHT22;9763;48.780;9.212;2023-09-19T18:32:09;22.90;49.10
19258;DHT22;9763;48.780;9.212;2023-09-19T18:35:35;22.80;49.10
19258;DHT22;9763;48.780;9.212;2023-09-19T18:39:00;22.80;49.30
19258;DHT22;9763;48.780;9.212;2023-09-19T18:42:29;22.70;49.40
19258;DHT22;9763;48.780;9.212;2023-09-19T18:45:56;21.50;48.50
19258;DHT22;9763;48.780;9.212;2023-09-19T18:49:21;22.70;49.70
19258;DHT22;9763;48.780;9.212;2023-09-19T18:52:47;22.70;49.70
19258;DHT22;9763;48.780;9.212;2023-09-19T18:56:13;22.60;49.70
19258;DHT22;9763;48.780;9.212;2023-09-19T18:59:37;22.60;49.80
19258;DHT22;9763;48.780;9.212;2023-09-19T19:03:01;22.60;49.90
19258;DHT22;9763;48.780;9.212;2023-09-19T19:06:26;22.50;49.80
19258;DHT22;9763;48.780;9.212;2023-09-19T19:09:52;22.50;49.90
19258;DHT22;9763;48.780;9.212;2023-09-19T19:13:17;22.40;50.00
19258;DHT22;9763;48.780;9.212;2023-09-19T19:16:42;22.40;50.10
19258;DHT22;9763;48.780;9.212;2023-09-19T19:20:07;22.40;50.20
19258;DHT22;9763;48.780;9.212;2023-09-19T19:23:33;22.30;50.30
19258;DHT22;9763;48.780;9.212;2023-09-19T19:26:59;22.30;50.30
19258;DHT22;9763;48.780;9.212;2023-09-19T19:30:23;22.30;50.40
19258;DHT22;9763;48.780;9.212;2023-09-19T19:33:47;22.30;50.40
19258;DHT22;9763;48.780;9.212;2023-09-19T19:37:15;22.20;50.30
19258;DHT22;9763;48.780;9.212;2023-09-19T19:40:40;22.20;50.30
19258;DHT22;9763;48.780;9.212;2023-09-19T19:44:06;22.10;50.30
19258;DHT22;9763;48.780;9.212;2023-09-19T19:47:31;22.10;50.40
19258;DHT22;9763;48.780;9.212;2023-09-19T19:50:55;22.30;50.50
19258;DHT22;9763;48.780;9.212;2023-09-19T19:54:20;22.10;50.30
19258;DHT22;9763;48.780;9.212;2023-09-19T19:57:45;22.10;50.20
19258;DHT22;9763;48.780;9.212;2023-09-19T20:01:10;22.10;50.20
19258;DHT22;9763;48.780;9.212;2023-09-19T20:04:34;22.10;50.30
19258;DHT22;9763;48.780;9.212;2023-09-19T20:07:57;22.10;50.30
19258;DHT22;9763;48.780;9.212;2023-09-19T20:11:21;22.10;50.40
19258;DHT22;9763;48.780;9.212;2023-09-19T20:14:49;22.00;50.30
19258;DHT22;9763;48.780;9.212;2023-09-19T20:18:14;22.00;50.40
19258;DHT22;9763;48.780;9.212;2023-09-19T20:21:38;22.00;50.40
19258;DHT22;9763;48.780;9.212;2023-09-19T20:25:03;21.90;50.50
19258;DHT22;9763;48.780;9.212;2023-09-19T20:28:28;21.90;50.60
19258;DHT22;9763;48.780;9.212;2023-09-19T20:31:52;21.80;50.50
19258;DHT22;9763;48.780;9.212;2023-09-19T20:35:18;21.80;50.70
19258;DHT22;9763;48.780;9.212;2023-09-19T20:38:42;21.80;50.80
19258;DHT22;9763;48.780;9.212;2023-09-19T20:42:07;21.70;50.80
19258;DHT22;9763;48.780;9.212;2023-09-19T20:45:31;21.70;50.90
19258;DHT22;9763;48.780;9.212;2023-09-19T20:48:55;21.60;50.90
19258;DHT22;9763;48.780;9.212;2023-09-19T20:52:22;21.60;51.00
19258;DHT22;9763;48.780;9.212;2023-09-19T20:55:46;21.50;51.10
19258;DHT22;9763;48.780;9.212;2023-09-19T20:59:10;21.50;51.10
19258;DHT22;9763;48.780;9.212;2023-09-19T21:02:35;21.50;51.20
19258;DHT22;9763;48.780;9.212;2023-09-19T21:06:01;21.40;51.20
19258;DHT22;9763;48.780;9.212;2023-09-19T21:09:31;21.40;52.00
19258;DHT22;9763;48.780;9.212;2023-09-19T21:12:57;21.30;51.30
19258;DHT22;9763;48.780;9.212;2023-09-19T21:16:22;21.20;51.30
19258;DHT22;9763;48.780;9.212;2023-09-19T21:19:46;21.20;51.40
19258;DHT22;9763;48.780;9.212;2023-09-19T21:23:09;21.10;51.40
19258;DHT22;9763;48.780;9.212;2023-09-19T21:26:37;21.10;51.60
19258;DHT22;9763;48.780;9.212;2023-09-19T21:30:00;21.10;51.80
19258;DHT22;9763;48.780;9.212;2023-09-19T21:33:26;20.90;51.70
19258;DHT22;9763;48.780;9.212;2023-09-19T21:36:51;20.90;51.80
19258;DHT22;9763;48.780;9.212;2023-09-19T21:40:16;20.80;51.90
19258;DHT22;9763;48.780;9.212;2023-09-19T21:43:41;20.80;52.00
19258;DHT22;9763;48.780;9.212;2023-09-19T21:47:05;20.80;52.10
19258;DHT22;9763;48.780;9.212;2023-09-19T21:50:29;20.70;52.10
19258;DHT22;9763;48.780;9.212;2023-09-19T21:53:54;20.60;52.10
19258;DHT22;9763;48.780;9.212;2023-09-19T21:57:19;20.60;52.30
19258;DHT22;9763;48.780;9.212;2023-09-19T22:00:44;20.60;52.40
19258;DHT22;9763;48.780;9.212;2023-09-19T22:04:09;20.50;52.40
19258;DHT22;9763;48.780;9.212;2023-09-19T22:07:32;20.50;52.50
19258;DHT22;9763;48.780;9.212;2023-09-19T22:10:56;20.50;52.60